• Join FlightAware (Why Join?)
  • Login
  • US Flag 
04:07AM EST


 

Airport Tracker/Info


-or-


 

Live Flight TrackerFlight Track Log ✈ EJA951 ✈ 14-Jul-2013 ✈ KCHS - KBRD

Flight Track Log - Related Links

Times and Time Zones

All times are in EDT time to prevent confusion due to time zone crossing. See the EJA951 flight status page for this flight to view local times or setup timezone preferences in your user account.

Time Position Orientation Groundspeed Altitude Reporting Facility
EDT Latitude Longitude Course Direction KTS MPH feet Rate Location/Type
03:35PM 33.0203 -80.0783 296° West 268 308 6,900  Level Jacksonville Center
03:36PM 33.0964 -80.1181 336° Northwest 279 321 8,900 1,500 Climbing Jacksonville Center
03:37PM 33.1767 -80.1653 334° Northwest 300 345 10,000 1,380 Climbing Jacksonville Center
03:38PM 33.2533 -80.2300 325° Northwest 318 366 11,700 1,920 Climbing Jacksonville Center
03:39PM 33.5247 -80.5542 299° West  Level FlightAware Approximate
03:39PM 33.3156 -80.3200 310° West 336 387 13,900  Level Jacksonville Center
03:40PM 33.5886 -80.6964 296° West  Level FlightAware Approximate
03:40PM 33.3819 -80.4050 313° West 347 399 16,200  Level Jacksonville Center
03:41PM 33.4464 -80.4906 312° West 347 399 17,900 1,500 Climbing Jacksonville Center
03:42PM 33.5147 -80.5808 312° West 357 411 19,200 1,500 Climbing Jacksonville Center
03:43PM 33.5933 -80.6611 320° Northwest 363 418 20,900 1,680 Climbing Jacksonville Center
03:44PM 33.6822 -80.7286 328° Northwest 369 425 22,600 1,800 Climbing Jacksonville Center
03:45PM 33.7750 -80.7914 331° Northwest 380 437 24,500 1,740 Climbing Jacksonville Center
03:46PM 33.8700 -80.8492 333° Northwest 380 437 26,100 1,200 Climbing Jacksonville Center
03:47PM 33.9692 -80.9169 330° Northwest 394 453 27,000 600 Climbing Jacksonville Center
03:48PM 34.0806 -80.9769 336° Northwest 409 471 27,300 660 Climbing Jacksonville Center
03:49PM 34.1961 -81.0322 338° Northwest 433 498 28,400 1,260 Climbing Jacksonville Center
03:50PM 34.3078 -81.1028 332° Northwest 445 512 29,900 1,260 Climbing Jacksonville Center
03:52PM 34.6025 -81.2956 332° Northwest 468 539 33,000 1,140 Climbing Atlanta Center
03:53PM 34.7192 -81.3728 331° Northwest 468 539 34,000 960 Climbing Atlanta Center
03:54PM 34.8317 -81.4628 327° Northwest 473 544 35,000 1,140 Climbing Atlanta Center
03:55PM 34.9278 -81.5789 315° West 480 552 36,300 1,260 Climbing Atlanta Center
03:56PM 35.0175 -81.6828 317° Northwest 486 559 37,600 1,380 Climbing Atlanta Center
03:57PM 35.1158 -81.7992 316° Northwest 492 566 39,100 1,560 Climbing Atlanta Center
03:58PM 35.2117 -81.9136 316° Northwest 485 558 40,800 1,440 Climbing Atlanta Center
03:59PM 35.3053 -82.0258 316° Northwest 474 545 42,000 840 Climbing Atlanta Center
04:00PM 35.3989 -82.1381 316° Northwest 474 545 42,500 480 Climbing Atlanta Center
04:01PM 35.5031 -82.2658 315° West 474 545 43,000 240 Climbing Atlanta Center
04:02PM 35.6008 -82.3836 316° Northwest 474 545 43,000  Level Atlanta Center
04:03PM 35.7025 -82.5044 316° Northwest 486 559 43,000  Level Atlanta Center
04:04PM 35.7872 -82.6078 315° West 486 559 43,000  Level Atlanta Center
04:05PM 35.8867 -82.7342 314° West 500 575 43,000  Level Atlanta Center
04:06PM 35.9878 -82.8558 316° Northwest 506 582 43,000  Level Atlanta Center
04:07PM 36.0869 -82.9800 315° West 506 582 43,000  Level Atlanta Center
04:08PM 36.1944 -83.1150 315° West 500 575 43,000  Level Atlanta Center
04:10PM 36.4397 -83.4172 315° West 509 586 43,000  Level Indianapolis Center
04:12PM 36.5406 -83.5442 315° West 511 588 43,000  Level Indianapolis Center
04:13PM 36.6414 -83.6706 315° West 512 589 43,000  Level Indianapolis Center
04:14PM 36.7411 -83.7978 314° West 510 587 43,000  Level Indianapolis Center
04:15PM 36.8406 -83.9239 315° West 507 583 43,000  Level Indianapolis Center
04:16PM 36.9394 -84.0506 314° West 506 582 43,000  Level Indianapolis Center
04:17PM 37.0386 -84.1789 314° West 507 583 43,000  Level Indianapolis Center
04:18PM 37.1553 -84.3283 314° West 511 588 43,000  Level Indianapolis Center
04:19PM 37.2542 -84.4569 314° West 511 588 43,000  Level Indianapolis Center
04:20PM 37.3528 -84.5856 314° West 508 585 43,000  Level Indianapolis Center
04:21PM 37.4511 -84.7133 314° West 507 583 43,000  Level Indianapolis Center
04:22PM 37.5481 -84.8408 314° West 504 580 43,000  Level Indianapolis Center
04:23PM 37.6619 -84.9928 313° West 507 583 43,000  Level Indianapolis Center
04:24PM 37.7569 -85.1200 313° West 500 575 43,000  Level Indianapolis Center
04:25PM 37.8522 -85.2450 314° West 503 579 43,000  Level Indianapolis Center
04:26PM 37.9489 -85.3714 314° West 500 575 43,000  Level Indianapolis Center
04:27PM 38.0444 -85.4992 314° West 500 575 43,000  Level Indianapolis Center
04:28PM 38.1428 -85.6242 315° West 501 577 43,100 240 Climbing Indianapolis Center
04:29PM 38.2444 -85.7447 317° Northwest 498 573 43,600 540 Climbing Indianapolis Center
04:30PM 38.3678 -85.8883 318° Northwest 501 577 44,300 540 Climbing Indianapolis Center
04:31PM 38.4706 -86.0108 317° Northwest 504 580 44,800 300 Climbing Indianapolis Center
04:32PM 38.5717 -86.1303 317° Northwest 500 575 45,000 60 Climbing Indianapolis Center
04:33PM 38.6733 -86.2528 317° Northwest 501 577 45,000  Level Indianapolis Center
04:34PM 38.7753 -86.3767 317° Northwest 505 581 45,000  Level Indianapolis Center
04:35PM 38.8775 -86.4989 317° Northwest 505 581 45,000  Level Indianapolis Center
04:36PM 38.9981 -86.6456 317° Northwest 501 577 45,000  Level Indianapolis Center
04:37PM 39.0981 -86.7667 317° Northwest 496 571 45,000  Level Indianapolis Center
04:38PM 39.1983 -86.8914 316° Northwest 491 565 45,000  Level Indianapolis Center
04:39PM 39.2981 -87.0128 317° Northwest 491 565 45,000  Level Indianapolis Center
04:40PM 39.3956 -87.1344 316° Northwest 487 560 45,000  Level Indianapolis Center
04:41PM 39.4953 -87.2539 317° Northwest 487 560 45,000  Level Indianapolis Center
04:43PM 39.6756 -87.4047 327° Northwest 484 557 45,000  Level Chicago Center
04:44PM 39.8103 -87.5181 327° Northwest 480 552 45,000  Level Chicago Center
04:45PM 39.9222 -87.6117 327° Northwest 479 551 45,000  Level Chicago Center
04:46PM 40.0358 -87.7056 328° Northwest 481 554 45,000  Level Chicago Center
04:47PM 40.1475 -87.7989 327° Northwest 477 549 45,000  Level Chicago Center
04:48PM 40.2711 -87.9092 326° Northwest 479 551 45,000  Level Chicago Center
04:49PM 40.3811 -88.0072 326° Northwest 478 550 45,000  Level Chicago Center
04:50PM 40.4906 -88.1069 325° Northwest 482 555 45,000  Level Chicago Center
04:51PM 40.5997 -88.2047 326° Northwest 478 550 45,000  Level Chicago Center
04:52PM 40.7089 -88.3042 325° Northwest 477 549 45,000  Level Chicago Center
04:53PM 40.8400 -88.4228 326° Northwest 475 547 45,000  Level Chicago Center
04:54PM 40.9497 -88.5222 326° Northwest 477 549 45,000  Level Chicago Center
04:56PM 41.0581 -88.6225 325° Northwest 473 544 45,000  Level Chicago Center
04:57PM 41.1622 -88.7339 321° Northwest 480 552 45,000  Level Chicago Center
04:58PM 41.2603 -88.8597 316° Northwest 490 564 45,000  Level Chicago Center
04:59PM 41.3558 -88.9850 315° West 485 558 45,000  Level Chicago Center
05:00PM 41.4733 -89.1300 317° Northwest 485 558 45,000  Level Chicago Center
05:01PM 41.5856 -89.2308 326° Northwest 487 560 45,000  Level Chicago Center
05:02PM 41.6944 -89.3303 326° Northwest 477 549 45,000  Level Chicago Center
05:03PM 41.8033 -89.4303 326° Northwest 476 548 45,000  Level Chicago Center
05:04PM 41.9100 -89.5300 325° Northwest 470 541 45,000  Level Chicago Center
05:05PM 42.0161 -89.6306 325° Northwest 468 539 45,000  Level Chicago Center
05:06PM 42.1397 -89.7472 325° Northwest 481 554 45,000  Level Chicago Center
05:07PM 42.2464 -89.8489 325° Northwest 471 542 45,000  Level Chicago Center
05:08PM 42.3503 -89.9467 325° Northwest 470 541 45,000  Level Chicago Center
05:09PM 42.4772 -90.0678 325° Northwest 471 542 45,000  Level Chicago Center
05:10PM 42.5842 -90.1694 325° Northwest 475 547 45,000  Level Chicago Center
05:11PM 42.6886 -90.2706 325° Northwest 470 541 45,000  Level Chicago Center
05:12PM 42.7936 -90.3711 325° Northwest 466 536 45,000  Level Chicago Center
05:13PM 42.9233 -90.4939 325° Northwest 481 554 45,000  Level Chicago Center
05:14PM 43.0281 -90.5953 325° Northwest 471 542 45,000  Level Chicago Center
05:15PM 43.1286 -90.6936 324° Northwest 454 522 45,000  Level Chicago Center
05:16PM 43.2336 -90.7961 325° Northwest 465 535 45,000  Level Chicago Center
05:17PM 43.3372 -90.8967 325° Northwest 464 534 45,000  Level Chicago Center
05:18PM 43.4633 -91.0225 324° Northwest 471 542 45,000  Level Chicago Center
05:19PM 43.5681 -91.1267 324° Northwest 471 542 45,000  Level Chicago Center
05:20PM 43.6711 -91.2306 324° Northwest 466 536 45,000  Level Chicago Center
05:21PM 43.7761 -91.3367 324° Northwest 472 543 45,000  Level Chicago Center
05:22PM 43.9011 -91.4617 324° Northwest 469 540 45,000  Level Chicago Center
05:23PM 44.0067 -91.5675 324° Northwest 471 542 45,000  Level Chicago Center
05:24PM 44.1111 -91.6753 323° Northwest 472 543 45,000  Level Chicago Center
05:26PM 44.2169 -91.7811 324° Northwest 474 545 45,000  Level Chicago Center
05:27PM 44.3208 -91.8894 323° Northwest 473 544 45,000  Level Chicago Center
05:28PM 44.4614 -92.0331 324° Northwest 471 542 45,000  Level Minneapolis Center
05:29PM 44.5661 -92.1433 323° Northwest 471 542 45,000  Level Minneapolis Center
05:30PM 44.6947 -92.2717 325° Northwest 473 544 45,000 -180 Level Minneapolis Center
05:31PM 44.7989 -92.3825 323° Northwest 472 543 44,700 -1,200 Descending Minneapolis Center
05:32PM 44.9061 -92.4981 323° Northwest 484 557 42,400 -2,460 Descending Minneapolis Center
05:33PM 45.0372 -92.6356 323° Northwest 492 566 39,100 -3,120 Descending Minneapolis Center
05:34PM 45.1494 -92.7567 323° Northwest 506 582 35,900 -3,000 Descending Minneapolis Center
05:35PM 45.2906 -92.9075 323° Northwest 531 611 33,000 -2,640 Descending Minneapolis Center
05:36PM 45.4072 -93.0317 323° Northwest 530 610 30,500 -2,520 Descending Minneapolis Center
05:37PM 45.5211 -93.1556 323° Northwest 521 600 27,800 -2,640 Descending Minneapolis Center
05:38PM 45.6344 -93.2786 323° Northwest 516 594 25,100 -2,580 Descending Minneapolis Center
05:39PM 45.7414 -93.3967 322° Northwest 493 567 22,500 -3,000 Descending Minneapolis Center
05:40PM 45.8631 -93.5292 323° Northwest 466 536 18,900 -3,180 Descending Minneapolis Center
05:42PM 45.9794 -93.6594 322° Northwest 448 516 15,300 -3,240 Descending Minneapolis Center
05:43PM 46.0794 -93.7358 332° Northwest 424 488 11,600 -2,400 Descending Minneapolis Center
05:44PM 46.1822 -93.7692 347° North 388 447 10,400 -1,320 Descending Minneapolis Center
05:45PM 46.2767 -93.7836 354° North 319 367 8,900 -1,800 Descending Minneapolis Center
05:46PM 46.3592 -93.7892 357° North 302 348 6,800 -1,500 Descending Minneapolis Center
05:47PM 46.4422 -93.8017 354° North 300 345 5,900 -840 Descending Minneapolis Center
05:48PM 46.5103 -93.8550 332° Northwest 288 331 5,100 -1,020 Descending Minneapolis Center
05:49PM 46.4947 -93.9514 257° West 276 318 3,900 -1,080 Descending Minneapolis Center
05:50PM 46.4561 -94.0256 233° Southwest 249 287 2,900 -1,020 Descending Minneapolis Center
05:52PM 46.4000 -94.1333 325° Northwest  Level FlightAware Approximate
05:59PM 46.4042 -94.1338 325° Northwest  Level Estimated